Time;durP1;ratioP1;P1;durP2;ratioP2;P2;SDS_P1;SDS_P2;PMS_P1;PMS_P2;Temp;Humidity;BMP_temperature;BMP_pressure;BME280_temperature;BME280_humidity;BME280_pressure;Samples;Min_cycle;Max_cycle;Signal;HPM_P1;HPM_P2
2021/01/15 00:01:41;;;;;;;4.90;2.43;;;;;;;-4.13;100.00;99175.88;1747134;81;20997;-76
2021/01/15 00:04:09;;;;;;;5.97;3.53;;;;;;;-4.16;100.00;99170.82;1747035;82;21006;-75
2021/01/15 00:06:37;;;;;;;5.00;3.40;;;;;;;-4.12;100.00;99164.38;1747188;81;21598;-76
2021/01/15 00:09:05;;;;;;;7.30;4.57;;;;;;;-4.09;100.00;99171.24;1747156;82;21033;-75
2021/01/15 00:11:33;;;;;;;7.73;4.00;;;;;;;-4.07;100.00;99166.25;1741639;81;21817;-75
2021/01/15 00:14:02;;;;;;;3.17;2.47;;;;;;;-4.06;100.00;99169.73;1771573;81;21039;-76
2021/01/15 00:16:32;;;;;;;5.93;4.20;;;;;;;-4.07;100.00;99163.61;1771483;79;21493;-76
2021/01/15 00:19:02;;;;;;;7.93;4.80;;;;;;;-4.10;100.00;99169.57;1771684;80;20983;-76
2021/01/15 00:21:32;;;;;;;7.40;3.23;;;;;;;-4.12;100.00;99172.78;1771635;81;21000;-76
2021/01/15 00:24:04;;;;;;;6.77;3.83;;;;;;;-4.13;100.00;99170.59;1771715;81;21520;-75
2021/01/15 00:26:34;;;;;;;5.72;4.03;;;;;;;-4.15;100.00;99163.73;1771701;79;25019;-75
2021/01/15 00:29:02;;;;;;;6.13;4.10;;;;;;;-4.16;100.00;99160.26;1771701;81;20908;-75
2021/01/15 00:31:34;;;;;;;6.80;4.70;;;;;;;-4.17;100.00;99159.87;1771679;81;21580;-74
2021/01/15 00:34:03;;;;;;;8.90;5.40;;;;;;;-4.16;100.00;99158.94;1771695;79;21758;-76
2021/01/15 00:36:31;;;;;;;8.37;4.67;;;;;;;-4.17;100.00;99151.11;1771679;81;21154;-77
2021/01/15 00:38:59;;;;;;;5.90;2.97;;;;;;;-4.26;100.00;99157.34;1771666;81;20995;-76
2021/01/15 00:41:29;;;;;;;6.17;3.73;;;;;;;-4.29;100.00;99157.54;1771662;80;21024;-75
2021/01/15 00:43:56;;;;;;;3.23;2.77;;;;;;;-4.30;100.00;99161.59;1771701;81;21055;-76
2021/01/15 00:46:31;;;;;;;4.57;2.40;;;;;;;-4.35;100.00;99160.59;1771553;79;20948;-76
2021/01/15 00:49:07;;;;;;;3.77;2.67;;;;;;;-4.36;100.00;99154.08;1771741;80;22825;-75
2021/01/15 00:51:37;;;;;;;7.70;5.00;;;;;;;-4.36;100.00;99156.72;1705677;83;21084;-76
2021/01/15 00:54:06;;;;;;;8.43;4.13;;;;;;;-4.34;100.00;99161.42;1705768;84;21112;-76
2021/01/15 00:56:37;;;;;;;8.00;4.43;;;;;;;-4.33;100.00;99171.05;1705707;84;21607;-76
2021/01/15 00:59:08;;;;;;;4.60;3.45;;;;;;;-4.37;100.00;99167.76;1705786;84;21036;-77
2021/01/15 01:01:38;;;;;;;4.50;2.77;;;;;;;-4.42;100.00;99165.41;1700678;82;22471;-76
2021/01/15 01:04:07;;;;;;;10.93;5.53;;;;;;;-4.51;100.00;99163.84;1700804;84;21054;-76
2021/01/15 01:06:35;;;;;;;5.70;3.40;;;;;;;-4.53;100.00;99163.06;1700880;84;21006;-76
2021/01/15 01:09:05;;;;;;;7.57;4.97;;;;;;;-4.53;100.00;99167.89;1700807;84;21075;-76
2021/01/15 01:11:33;;;;;;;6.70;2.57;;;;;;;-4.58;100.00;99161.56;1669823;84;21093;-76
2021/01/15 01:14:01;;;;;;;5.80;4.23;;;;;;;-4.66;100.00;99157.72;1697195;84;21077;-76
2021/01/15 01:16:30;;;;;;;6.27;3.57;;;;;;;-4.70;100.00;99161.02;1675232;82;21155;-75
2021/01/15 01:18:59;;;;;;;3.70;2.87;;;;;;;-4.70;100.00;99156.22;1642023;87;21080;-76
2021/01/15 01:21:27;;;;;;;3.67;2.37;;;;;;;-4.71;100.00;99158.47;1670115;86;21084;-77
2021/01/15 01:23:55;;;;;;;4.73;3.13;;;;;;;-4.75;100.00;99161.77;1641941;87;22421;-77
2021/01/15 01:26:23;;;;;;;5.13;2.97;;;;;;;-4.79;100.00;99155.84;1670078;84;21512;-75
2021/01/15 01:28:50;;;;;;;5.80;3.17;;;;;;;-4.82;100.00;99152.06;1620200;87;21037;-76
2021/01/15 01:31:18;;;;;;;7.93;4.77;;;;;;;-4.82;100.00;99157.34;1670205;86;21043;-77
2021/01/15 01:33:46;;;;;;;3.67;2.87;;;;;;;-4.81;100.00;99159.05;1641816;87;20957;-76
2021/01/15 01:36:15;;;;;;;3.70;2.47;;;;;;;-4.84;100.00;99162.35;1699646;82;21691;-75
2021/01/15 01:38:43;;;;;;;5.70;2.87;;;;;;;-4.85;100.00;99160.20;1735934;82;22622;-76
2021/01/15 01:41:11;;;;;;;4.67;2.83;;;;;;;-4.81;100.00;99158.22;1735880;81;21045;-77
2021/01/15 01:43:40;;;;;;;3.77;3.00;;;;;;;-4.81;100.00;99158.22;1736001;81;21657;-76
2021/01/15 01:46:09;;;;;;;6.03;3.27;;;;;;;-4.79;100.00;99155.00;1735856;82;21016;-76
2021/01/15 01:48:37;;;;;;;2.40;2.20;;;;;;;-4.79;100.00;99161.12;1785358;79;21111;-76
2021/01/15 01:51:06;;;;;;;5.00;3.33;;;;;;;-4.77;100.00;99163.19;1800575;78;22254;-77
2021/01/15 01:53:37;;;;;;;7.73;3.77;;;;;;;-4.77;100.00;99161.03;1832957;78;21374;-76
2021/01/15 01:56:06;;;;;;;3.53;3.10;;;;;;;-4.82;100.00;99155.19;1806033;78;20936;-75
2021/01/15 01:58:35;;;;;;;6.60;4.00;;;;;;;-4.86;100.00;99162.44;1833012;78;20984;-76
2021/01/15 02:01:05;;;;;;;2.57;1.97;;;;;;;-4.87;100.00;99164.72;1833146;78;20963;-75
2021/01/15 02:03:34;;;;;;;1.83;1.73;;;;;;;-4.89;100.00;99162.63;1833037;78;22278;-76
2021/01/15 02:06:04;;;;;;;5.53;3.23;;;;;;;-4.88;100.00;99161.70;1832992;78;20983;-75
2021/01/15 02:08:32;;;;;;;7.03;4.20;;;;;;;-4.88;100.00;99164.33;1833000;78;21585;-77
2021/01/15 02:11:17;;;;;;;4.77;3.33;;;;;;;-4.93;100.00;99166.88;1805458;78;21018;-76
2021/01/15 02:14:03;;;;;;;6.07;3.27;;;;;;;-5.04;100.00;99166.23;1833050;78;21867;-76
2021/01/15 02:16:31;;;;;;;5.13;3.20;;;;;;;-5.11;100.00;99165.74;1806029;77;21569;-76
2021/01/15 02:19:38;;;;;;;3.50;2.80;;;;;;;-5.16;100.00;99163.86;1748714;79;21130;-76
2021/01/15 02:22:39;;;;;;;2.40;1.93;;;;;;;-5.18;100.00;99162.63;1800430;78;20989;-77
2021/01/15 02:25:34;;;;;;;2.70;2.27;;;;;;;-5.21;100.00;99165.92;1800238;79;20984;-76
2021/01/15 02:28:31;;;;;;;3.53;2.50;;;;;;;-5.23;100.00;99171.28;1800351;79;20973;-76
2021/01/15 02:31:07;;;;;;;4.07;2.27;;;;;;;-5.28;100.00;99168.55;1800244;79;21364;-75
2021/01/15 02:34:18;;;;;;;1.87;1.77;;;;;;;-5.30;100.00;99170.44;1705232;84;21323;-76
2021/01/15 02:37:06;;;;;;;3.03;1.87;;;;;;;-5.31;100.00;99170.91;1672440;85;21066;-76
2021/01/15 02:39:50;;;;;;;3.60;2.37;;;;;;;-5.35;100.00;99171.56;1672634;85;21067;-76
2021/01/15 02:42:20;;;;;;;4.83;3.98;;;;;;;-5.40;100.00;99185.48;1651726;85;24068;-75
2021/01/15 02:44:49;;;;;;;6.17;3.53;;;;;;;-5.48;100.00;99186.88;1672735;85;21284;-76
2021/01/15 02:47:27;;;;;;;4.90;3.17;;;;;;;-5.59;100.00;99194.09;1672435;85;21212;-77
2021/01/15 02:49:58;;;;;;;6.63;3.47;;;;;;;-5.64;100.00;99199.62;1672045;85;21232;-76
2021/01/15 02:52:26;;;;;;;1.40;1.30;;;;;;;-5.65;100.00;99197.91;1669216;86;21019;-76
2021/01/15 02:54:54;;;;;;;4.77;3.30;;;;;;;-5.69;100.00;99207.41;1669323;86;21047;-77
2021/01/15 02:57:22;;;;;;;3.03;2.10;;;;;;;-5.72;100.00;99204.02;1645493;86;21851;-77
2021/01/15 02:59:50;;;;;;;2.63;2.20;;;;;;;-5.74;100.00;99208.98;1669097;86;21162;-77
2021/01/15 03:02:28;;;;;;;3.13;2.83;;;;;;;-5.80;100.00;99208.87;1669569;86;21015;-77
2021/01/15 03:05:21;;;;;;;4.80;2.90;;;;;;;-5.82;100.00;99216.02;1669304;86;21657;-76
2021/01/15 03:07:50;;;;;;;6.53;3.37;;;;;;;-5.84;100.00;99224.92;1669341;86;21026;-75
2021/01/15 03:10:22;;;;;;;4.43;2.63;;;;;;;-5.84;100.00;99238.95;1680662;84;21380;-76
2021/01/15 03:12:50;;;;;;;3.10;2.90;;;;;;;-5.87;100.00;99229.91;1695894;84;21617;-77
2021/01/15 03:15:18;;;;;;;3.53;2.23;;;;;;;-5.93;100.00;99235.06;1696281;84;21651;-76
2021/01/15 03:17:49;;;;;;;4.40;3.00;;;;;;;-6.01;100.00;99234.66;1697528;84;21045;-78
2021/01/15 03:20:18;;;;;;;4.43;3.37;;;;;;;-6.05;100.00;99235.78;1674386;84;21049;-76
2021/01/15 03:22:46;;;;;;;2.67;2.47;;;;;;;-6.10;100.00;99233.87;1697530;84;22645;-77
2021/01/15 03:25:14;;;;;;;4.43;3.40;;;;;;;-6.08;100.00;99239.89;1697587;84;21204;-78
2021/01/15 03:27:55;;;;;;;4.10;3.00;;;;;;;-6.08;100.00;99237.26;1697481;84;21018;-77
2021/01/15 03:30:30;;;;;;;7.50;3.65;;;;;;;-6.10;100.00;99241.77;1830127;76;28341;-78
2021/01/15 03:33:01;;;;;;;3.60;2.27;;;;;;;-6.12;100.00;99243.16;1816022;79;21560;-77
2021/01/15 03:35:30;;;;;;;2.63;1.90;;;;;;;-6.06;100.00;99243.28;1802219;78;21925;-77
2021/01/15 03:38:11;;;;;;;4.10;3.00;;;;;;;-5.99;100.00;99245.11;1802320;79;20916;-77
2021/01/15 03:40:47;;;;;;;2.90;2.10;;;;;;;-5.92;100.00;99239.37;1890710;75;23216;-76
2021/01/15 03:43:20;;;;;;;4.03;3.37;;;;;;;-5.98;100.00;99234.97;1861593;77;20963;-77
2021/01/15 03:45:49;;;;;;;2.72;2.47;;;;;;;-6.02;100.00;99238.25;1861734;77;21590;-78
2021/01/15 03:48:18;;;;;;;6.20;3.00;;;;;;;-6.07;100.00;99238.09;1861490;77;21049;-78
2021/01/15 03:50:46;;;;;;;6.53;3.73;;;;;;;-6.08;100.00;99239.05;1861447;77;20923;-77
2021/01/15 03:53:15;;;;;;;8.47;3.70;;;;;;;-6.17;100.00;99239.94;1861330;77;20994;-76
2021/01/15 03:55:43;;;;;;;7.17;3.70;;;;;;;-6.17;100.00;99249.62;1861555;77;20907;-77
2021/01/15 03:58:11;;;;;;;6.03;3.43;;;;;;;-6.20;100.00;99241.41;1861477;77;21186;-77
2021/01/15 04:00:39;;;;;;;3.27;2.80;;;;;;;-6.23;100.00;99244.67;1861385;77;21002;-77
2021/01/15 04:03:08;;;;;;;4.57;2.80;;;;;;;-6.24;100.00;99250.89;1861303;77;21584;-77
2021/01/15 04:05:37;;;;;;;6.53;3.80;;;;;;;-6.27;100.00;99253.69;1861415;77;20911;-76
2021/01/15 04:08:05;;;;;;;5.97;3.93;;;;;;;-6.35;100.00;99253.64;1861568;77;21469;-77
2021/01/15 04:10:35;;;;;;;5.30;3.83;;;;;;;-6.40;100.00;99255.66;1861333;77;22361;-77
2021/01/15 04:13:02;;;;;;;2.73;2.53;;;;;;;-6.40;100.00;99254.34;1861266;77;20923;-76
2021/01/15 04:15:30;;;;;;;9.53;3.93;;;;;;;-6.41;100.00;99247.85;1847763;76;20996;-77
2021/01/15 04:18:01;;;;;;;5.53;4.10;;;;;;;-6.43;100.00;99251.88;1827676;78;21605;-75
2021/01/15 04:20:30;;;;;;;3.13;2.83;;;;;;;-6.43;100.00;99250.56;1849513;76;21028;-78
2021/01/15 04:22:57;;;;;;;3.23;2.53;;;;;;;-6.43;100.00;99251.88;1872961;76;21416;-77
2021/01/15 04:25:26;;;;;;;5.63;3.50;;;;;;;-6.42;100.00;99256.22;1872821;76;20984;-78
2021/01/15 04:27:54;;;;;;;2.40;2.20;;;;;;;-6.44;100.00;99253.30;1872809;76;20993;-77
2021/01/15 04:30:24;;;;;;;5.43;3.60;;;;;;;-6.45;100.00;99257.69;1872829;76;20933;-77
2021/01/15 04:32:52;;;;;;;4.03;3.20;;;;;;;-6.45;100.00;99251.59;1872908;76;20969;-75
2021/01/15 04:35:19;;;;;;;2.70;2.23;;;;;;;-6.43;100.00;99257.14;1872867;76;21806;-76
2021/01/15 04:37:48;;;;;;;4.30;2.63;;;;;;;-6.42;100.00;99254.06;1872814;76;21044;-77
2021/01/15 04:40:16;;;;;;;3.50;2.70;;;;;;;-6.52;100.00;99249.75;1872889;76;21526;-76
2021/01/15 04:42:45;;;;;;;5.43;2.60;;;;;;;-6.60;100.00;99248.02;1872962;76;21482;-77
2021/01/15 04:45:17;;;;;;;4.47;2.50;;;;;;;-6.63;100.00;99249.02;1872991;76;21052;-78
2021/01/15 04:47:47;;;;;;;2.13;1.93;;;;;;;-6.62;100.00;99246.78;1873086;76;21181;-79
2021/01/15 04:50:16;;;;;;;5.07;2.47;;;;;;;-6.64;100.00;99251.25;1872820;76;20988;-79
2021/01/15 04:52:50;;;;;;;5.03;3.07;;;;;;;-6.69;100.00;99255.45;1872673;76;21466;-77
2021/01/15 04:55:24;;;;;;;2.77;2.20;;;;;;;-6.77;100.00;99252.38;1782717;80;21058;-78
2021/01/15 04:57:58;;;;;;;5.67;2.90;;;;;;;-6.76;100.00;99244.88;1890833;76;23258;-80
2021/01/15 05:00:27;;;;;;;1.90;1.73;;;;;;;-6.86;100.00;99246.29;1819266;77;21463;-77
2021/01/15 05:02:55;;;;;;;4.90;3.20;;;;;;;-6.95;100.00;99244.98;1861760;76;22352;-77
2021/01/15 05:05:25;;;;;;;2.60;2.03;;;;;;;-6.95;100.00;99242.84;1861486;77;20971;-79
2021/01/15 05:08:14;;;;;;;4.13;2.60;;;;;;;-6.93;100.00;99243.60;1861945;77;21112;-78
2021/01/15 05:10:48;;;;;;;4.30;2.77;;;;;;;-6.90;100.00;99248.70;1861865;77;20995;-78
2021/01/15 05:13:16;;;;;;;2.00;1.87;;;;;;;-6.84;100.00;99252.78;1862165;77;21452;-76
2021/01/15 05:15:49;;;;;;;10.50;5.07;;;;;;;-6.82;100.00;99251.77;1849925;77;21142;-78
2021/01/15 05:18:21;;;;;;;7.33;4.27;;;;;;;-6.77;100.00;99254.16;1850004;77;21638;-78
2021/01/15 05:20:50;;;;;;;7.97;4.20;;;;;;;-6.83;100.00;99256.66;1850140;77;21003;-79
2021/01/15 05:23:18;;;;;;;5.00;3.20;;;;;;;-6.92;100.00;99258.45;1849930;77;20912;-78
2021/01/15 05:25:47;;;;;;;9.07;3.77;;;;;;;-7.01;100.00;99251.89;1800447;77;20999;-77
2021/01/15 05:28:17;;;;;;;6.20;3.70;;;;;;;-7.02;100.00;99248.87;1849858;77;21523;-78
2021/01/15 05:30:54;;;;;;;6.70;4.00;;;;;;;-6.99;100.00;99250.03;1849599;77;20988;-79
2021/01/15 05:33:22;;;;;;;6.63;3.77;;;;;;;-6.97;100.00;99252.11;1756967;81;21013;-78
2021/01/15 05:35:51;;;;;;;5.27;2.80;;;;;;;-6.99;100.00;99253.97;1771048;81;20961;-78
2021/01/15 05:38:21;;;;;;;5.57;2.27;;;;;;;-7.00;100.00;99257.52;1761846;81;21056;-79
2021/01/15 05:40:57;;;;;;;3.07;2.77;;;;;;;-7.03;100.00;99248.47;1717488;83;22369;-78
2021/01/15 05:43:32;;;;;;;2.17;1.90;;;;;;;-7.06;100.00;99257.38;1695521;83;20981;-77
2021/01/15 05:46:21;;;;;;;5.03;2.63;;;;;;;-7.18;100.00;99255.84;1752912;81;21032;-76
2021/01/15 05:48:53;;;;;;;4.60;2.73;;;;;;;-7.28;100.00;99256.77;1753254;81;20957;-79
2021/01/15 05:51:34;;;;;;;3.00;2.23;;;;;;;-7.27;100.00;99255.38;1853377;76;22604;-78
2021/01/15 05:54:04;;;;;;;5.17;3.85;;;;;;;-7.29;100.00;99260.34;1783493;80;20952;-77
2021/01/15 05:56:41;;;;;;;5.30;3.07;;;;;;;-7.37;100.00;99264.64;1855772;77;21198;-77
2021/01/15 05:59:14;;;;;;;3.50;2.30;;;;;;;-7.41;100.00;99258.33;1855672;77;21004;-79
2021/01/15 06:02:05;;;;;;;3.53;2.77;;;;;;;-7.46;100.00;99253.30;1855774;77;20997;-79
2021/01/15 06:04:36;;;;;;;5.97;3.03;;;;;;;-7.54;100.00;99260.25;1856164;77;20946;-79
2021/01/15 06:07:16;;;;;;;8.10;1.73;;;;;;;-7.54;100.00;99268.57;1856035;77;21004;-78
2021/01/15 06:09:46;;;;;;;2.00;1.90;;;;;;;-7.54;100.00;99267.26;1849712;77;21798;-73
2021/01/15 06:12:19;;;;;;;3.80;3.13;;;;;;;-7.48;100.00;99277.47;1822682;78;20977;-75
2021/01/15 06:14:49;;;;;;;3.52;2.42;;;;;;;-7.45;100.00;99267.66;1822451;78;20918;-74
2021/01/15 06:17:19;;;;;;;2.03;1.87;;;;;;;-7.42;100.00;99269.75;1821520;78;20910;-75
2021/01/15 06:19:58;;;;;;;4.10;2.57;;;;;;;-7.39;100.00;99272.23;1821981;78;20957;-73
2021/01/15 06:22:46;;;;;;;5.07;3.90;;;;;;;-7.40;100.00;99284.96;1783315;80;21189;-74
2021/01/15 06:25:30;;;;;;;4.87;2.87;;;;;;;-7.42;100.00;99283.72;1821846;78;20929;-72
2021/01/15 06:30:37;;;;;;;11.10;4.03;;;;;;;-7.50;100.00;99281.95;1757781;81;21019;-73
2021/01/15 06:33:14;;;;;;;2.30;2.13;;;;;;;-7.48;100.00;99285.35;1741294;82;21024;-72
2021/01/15 06:35:47;;;;;;;3.70;2.27;;;;;;;-7.47;100.00;99287.03;1721070;83;21903;-72
2021/01/15 06:38:20;;;;;;;10.50;4.22;;;;;;;-7.47;100.00;99287.03;1721149;83;21360;-73
2021/01/15 06:40:49;;;;;;;7.00;3.67;;;;;;;-7.50;100.00;99291.15;1747751;82;21609;-74
2021/01/15 06:43:36;;;;;;;5.33;3.40;;;;;;;-7.52;100.00;99289.91;1744274;82;21036;-74
2021/01/15 06:46:13;;;;;;;5.10;3.53;;;;;;;-7.47;100.00;99285.72;1845425;76;22316;-71
2021/01/15 06:48:41;;;;;;;9.40;5.53;;;;;;;-7.48;100.00;99294.55;1815797;79;21371;-72
2021/01/15 06:51:10;;;;;;;6.83;4.17;;;;;;;-7.45;100.00;99295.72;1815832;79;21673;-72
2021/01/15 06:53:38;;;;;;;11.47;4.30;;;;;;;-7.40;100.00;99296.78;1815768;79;21027;-72
2021/01/15 06:56:07;;;;;;;5.17;3.80;;;;;;;-7.41;100.00;99295.94;1815502;79;20992;-71
2021/01/15 06:58:43;;;;;;;7.53;4.30;;;;;;;-7.39;100.00;99306.38;1815526;79;21015;-72
2021/01/15 07:01:26;;;;;;;9.33;4.93;;;;;;;-7.34;100.00;99305.69;1815735;79;21019;-72
2021/01/15 07:04:27;;;;;;;8.17;5.47;;;;;;;-7.34;100.00;99305.69;1802422;78;21257;-73
2021/01/15 07:07:13;;;;;;;5.20;3.27;;;;;;;-7.33;100.00;99309.99;1802229;79;20979;-74
2021/01/15 07:09:46;;;;;;;6.33;4.30;;;;;;;-7.30;100.00;99304.12;1802127;79;21079;-73
2021/01/15 07:12:18;;;;;;;7.45;5.20;;;;;;;-7.18;100.00;99309.71;1802450;79;21595;-74
2021/01/15 07:14:58;;;;;;;6.70;3.77;;;;;;;-7.01;100.00;99307.09;1884719;75;22647;-73
2021/01/15 07:17:37;;;;;;;6.97;4.67;;;;;;;-6.96;100.00;99314.72;1791211;80;21038;-73
2021/01/15 07:20:13;;;;;;;7.87;4.80;;;;;;;-6.90;100.00;99315.73;1791307;80;21162;-72
2021/01/15 07:23:00;;;;;;;11.07;5.57;;;;;;;-6.86;100.00;99318.58;1791969;78;21045;-73
2021/01/15 07:25:31;;;;;;;6.40;3.73;;;;;;;-6.79;100.00;99320.44;1811336;78;20918;-73
2021/01/15 07:27:59;;;;;;;5.27;3.43;;;;;;;-6.83;100.00;99318.43;1763029;80;21050;-72
2021/01/15 07:30:30;;;;;;;5.87;3.30;;;;;;;-6.87;100.00;99321.69;1823730;78;20989;-74
2021/01/15 07:32:58;;;;;;;5.33;3.57;;;;;;;-6.93;100.00;99319.35;1676754;84;21178;-74
2021/01/15 07:35:29;;;;;;;6.60;4.03;;;;;;;-6.93;100.00;99321.14;1729935;83;21502;-74
2021/01/15 07:38:16;;;;;;;6.47;3.47;;;;;;;-6.97;100.00;99327.48;1730010;83;21000;-75
2021/01/15 07:40:48;;;;;;;5.17;2.93;;;;;;;-7.01;100.00;99324.17;1726670;83;21092;-73
2021/01/15 07:43:34;;;;;;;3.87;2.80;;;;;;;-6.94;100.00;99328.63;1730033;83;21905;-73
2021/01/15 07:46:11;;;;;;;6.23;4.20;;;;;;;-6.90;100.00;99327.09;1834852;76;22746;-72
2021/01/15 07:48:39;;;;;;;8.37;4.33;;;;;;;-6.94;100.00;99336.07;1799626;79;21147;-74
2021/01/15 07:51:13;;;;;;;4.17;2.77;;;;;;;-7.02;100.00;99339.53;1763934;79;21651;-76
2021/01/15 07:53:43;;;;;;;9.57;4.77;;;;;;;-7.05;100.00;99339.69;1799518;79;21047;-77
2021/01/15 07:56:12;;;;;;;2.30;2.10;;;;;;;-7.01;100.00;99341.25;1800348;79;20979;-73
2021/01/15 07:58:45;;;;;;;12.10;6.00;;;;;;;-7.01;100.00;99349.14;1800296;78;21019;-73
2021/01/15 08:01:17;;;;;;;5.30;3.03;;;;;;;-7.00;100.00;99349.98;1800203;79;21557;-73
2021/01/15 08:06:33;;;;;;;8.85;4.03;;;;;;;-6.95;100.00;99344.87;1829099;76;28313;-72
2021/01/15 08:09:07;;;;;;;2.43;1.90;;;;;;;-7.09;100.00;99350.81;1815779;79;21415;-72
2021/01/15 08:11:37;;;;;;;5.83;3.30;;;;;;;-7.16;100.00;99351.20;1810844;79;22302;-73
2021/01/15 08:14:21;;;;;;;3.97;3.53;;;;;;;-7.14;100.00;99353.29;1760364;80;21007;-73
2021/01/15 08:16:50;;;;;;;3.77;2.77;;;;;;;-7.17;100.00;99358.25;1771880;81;21008;-72
2021/01/15 08:19:22;;;;;;;5.70;4.00;;;;;;;-7.14;100.00;99362.02;1750993;81;21106;-74
2021/01/15 08:21:51;;;;;;;4.83;3.57;;;;;;;-7.13;100.00;99359.78;1740565;81;20985;-72
2021/01/15 08:24:20;;;;;;;6.60;4.20;;;;;;;-7.11;100.00;99364.97;1751833;81;21815;-76
2021/01/15 08:26:55;;;;;;;12.10;5.97;;;;;;;-7.11;100.00;99367.59;1748863;80;21052;-73
2021/01/15 08:29:27;;;;;;;7.30;4.27;;;;;;;-7.13;100.00;99371.61;1754164;81;20979;-70
2021/01/15 08:31:57;;;;;;;7.27;3.30;;;;;;;-7.18;100.00;99373.61;1749173;81;21020;-71
2021/01/15 08:34:33;;;;;;;6.87;3.50;;;;;;;-7.19;100.00;99369.74;1734444;82;21037;-72
2021/01/15 08:37:14;;;;;;;4.33;3.00;;;;;;;-7.20;100.00;99366.27;1758324;79;22071;-71
2021/01/15 08:39:49;;;;;;;8.30;3.93;;;;;;;-7.33;100.00;99362.09;1747093;81;21025;-71
2021/01/15 08:42:17;;;;;;;7.83;5.07;;;;;;;-7.49;100.00;99355.42;1695309;81;21257;-75
2021/01/15 08:44:50;;;;;;;12.97;4.80;;;;;;;-7.50;100.00;99352.86;1738186;82;21085;-72
2021/01/15 08:47:21;;;;;;;8.40;4.03;;;;;;;-7.45;100.00;99348.24;1743346;82;20952;-72
2021/01/15 08:49:55;;;;;;;4.63;2.77;;;;;;;-7.43;100.00;99349.02;1740183;82;21389;-75
2021/01/15 08:52:32;;;;;;;7.60;4.53;;;;;;;-7.39;100.00;99345.77;1835415;77;22785;-72
2021/01/15 08:55:01;;;;;;;5.80;3.77;;;;;;;-7.45;100.00;99345.14;1822035;78;20993;-74
2021/01/15 08:57:29;;;;;;;6.80;4.37;;;;;;;-7.45;100.00;99345.61;1802189;78;21355;-74
2021/01/15 09:00:13;;;;;;;5.23;3.40;;;;;;;-7.37;100.00;99351.80;1822445;77;20938;-72
2021/01/15 09:02:42;;;;;;;7.77;4.57;;;;;;;-7.33;100.00;99353.34;1781672;80;20967;-72
2021/01/15 09:05:18;;;;;;;10.20;4.53;;;;;;;-7.29;100.00;99347.03;1786088;80;20962;-75
2021/01/15 09:07:49;;;;;;;4.90;3.87;;;;;;;-7.21;100.00;99344.02;1779383;80;20993;-72
2021/01/15 09:10:24;;;;;;;11.23;6.20;;;;;;;-7.00;100.00;99348.19;1839817;75;22876;-73
2021/01/15 09:12:52;;;;;;;10.57;4.80;;;;;;;-6.94;100.00;99347.90;1805885;78;21056;-72
2021/01/15 09:15:26;;;;;;;7.50;4.70;;;;;;;-6.89;100.00;99339.76;1804811;78;21444;-71
2021/01/15 09:17:58;;;;;;;6.17;4.47;;;;;;;-6.96;100.00;99336.59;1715104;82;20962;-76
2021/01/15 09:20:27;;;;;;;8.75;5.12;;;;;;;-6.98;100.00;99341.08;1699751;84;21457;-78
2021/01/15 09:23:07;;;;;;;9.40;5.67;;;;;;;-6.93;100.00;99331.18;1803778;79;22927;-73
2021/01/15 09:25:35;;;;;;;9.40;4.03;;;;;;;-6.98;100.00;99342.86;1771296;80;21041;-73
2021/01/15 09:28:04;;;;;;;7.13;4.53;;;;;;;-6.92;100.00;99343.41;1771139;81;21148;-73
2021/01/15 09:30:32;;;;;;;5.30;3.83;;;;;;;-6.90;100.00;99345.96;1771047;81;21149;-73
2021/01/15 09:33:01;;;;;;;10.87;5.87;;;;;;;-6.91;100.00;99337.20;1771322;81;21013;-72
2021/01/15 09:35:29;;;;;;;9.90;4.20;;;;;;;-6.90;100.00;99332.34;1774554;80;20998;-74
2021/01/15 09:38:00;;;;;;;6.73;4.00;;;;;;;-6.83;100.00;99332.89;1716454;83;21775;-74
2021/01/15 09:40:29;;;;;;;7.67;4.93;;;;;;;-6.71;100.00;99334.02;1715184;82;21286;-74
2021/01/15 09:42:57;;;;;;;7.60;4.20;;;;;;;-6.64;100.00;99330.14;1687359;85;21061;-73
2021/01/15 09:45:25;;;;;;;11.40;6.77;;;;;;;-6.60;100.00;99327.76;1687597;85;21081;-72
2021/01/15 09:47:54;;;;;;;7.50;4.00;;;;;;;-6.54;100.00;99327.42;1687622;84;21065;-72
2021/01/15 09:50:24;;;;;;;12.10;5.27;;;;;;;-6.47;100.00;99325.32;1665327;85;21054;-79
2021/01/15 09:52:52;;;;;;;6.63;4.00;;;;;;;-6.42;100.00;99319.83;1721468;82;21676;-72
2021/01/15 09:55:22;;;;;;;13.63;5.00;;;;;;;-6.49;100.00;99323.24;1678230;83;21036;-86
2021/01/15 09:57:52;;;;;;;6.83;4.17;;;;;;;-6.54;100.00;99320.00;1712405;84;21028;-85
2021/01/15 10:00:24;;;;;;;8.23;4.62;;;;;;;-6.50;100.00;99319.77;1712602;84;21039;-87
2021/01/15 10:02:52;;;;;;;5.77;3.50;;;;;;;-6.40;100.00;99314.86;1712294;81;21091;-84
2021/01/15 10:05:21;;;;;;;6.07;4.70;;;;;;;-6.25;100.00;99318.47;1711233;84;21294;-82
2021/01/15 10:07:49;;;;;;;17.20;7.57;;;;;;;-6.09;100.00;99317.62;1710490;84;21104;-82
2021/01/15 10:10:17;;;;;;;7.33;4.60;;;;;;;-6.00;100.00;99319.73;1713181;83;21196;-79
2021/01/15 10:12:48;;;;;;;6.77;4.27;;;;;;;-6.05;100.00;99320.48;1718056;83;21061;-84
2021/01/15 10:15:16;;;;;;;7.07;4.60;;;;;;;-6.08;100.00;99318.85;1720928;83;21050;-76
2021/01/15 10:17:47;;;;;;;4.90;2.63;;;;;;;-6.08;100.00;99313.59;1747346;82;21673;-80
2021/01/15 10:20:18;;;;;;;7.87;4.87;;;;;;;-6.03;100.00;99314.66;1725976;83;21217;-87
2021/01/15 10:22:46;;;;;;;9.43;4.93;;;;;;;-5.98;100.00;99310.84;1696958;82;21280;-81
2021/01/15 10:25:16;;;;;;;6.10;5.07;;;;;;;-5.98;100.00;99301.63;1732756;83;20979;-81
2021/01/15 10:27:46;;;;;;;9.77;5.40;;;;;;;-5.95;100.00;99301.44;1793949;79;21056;-78
2021/01/15 10:30:16;;;;;;;9.57;5.97;;;;;;;-5.84;100.00;99302.16;1714866;82;22359;-75
2021/01/15 10:32:47;;;;;;;13.07;5.73;;;;;;;-5.76;100.00;99292.50;1800369;79;20994;-74
2021/01/15 10:35:15;;;;;;;4.77;3.97;;;;;;;-5.80;100.00;99289.66;1699971;82;21151;-75
2021/01/15 10:37:44;;;;;;;13.33;6.93;;;;;;;-5.83;100.00;99287.19;1709264;82;21024;-78
2021/01/15 10:40:12;;;;;;;7.53;4.33;;;;;;;-5.81;100.00;99284.84;1769710;81;20951;-70
2021/01/15 10:42:43;;;;;;;9.30;4.63;;;;;;;-5.76;100.00;99286.75;1771117;79;21162;-72
2021/01/15 10:45:11;;;;;;;5.30;3.53;;;;;;;-5.64;100.00;99283.91;1756173;79;20987;-73
2021/01/15 10:47:42;;;;;;;4.13;3.73;;;;;;;-5.51;100.00;99285.36;1771578;79;21006;-75
2021/01/15 10:50:13;;;;;;;;;;;;;;;-5.44;100.00;99281.91;1779192;79;20984;-79
2021/01/15 10:52:42;;;;;;;8.23;4.57;;;;;;;-5.43;100.00;99283.14;1782781;79;20513;-77
2021/01/15 10:55:13;;;;;;;5.77;4.10;;;;;;;-5.37;100.00;99268.28;1772992;79;21202;-78
2021/01/15 10:57:43;;;;;;;7.97;5.03;;;;;;;-5.32;100.00;99285.63;1778388;79;20994;-79
2021/01/15 11:00:15;;;;;;;13.50;5.63;;;;;;;-5.27;100.00;99275.67;1725931;79;21007;-82
2021/01/15 11:02:49;;;;;;;6.60;4.17;;;;;;;-5.20;100.00;99273.90;1761141;79;28584;-83
2021/01/15 11:05:18;;;;;;;5.97;4.57;;;;;;;-5.16;100.00;99269.30;1707382;81;21110;-80
2021/01/15 11:07:46;;;;;;;4.50;3.80;;;;;;;-5.16;100.00;99273.25;1703311;83;21222;-83
2021/01/15 11:10:16;;;;;;;13.13;7.30;;;;;;;-5.16;100.00;99274.09;1684462;83;21729;-84
2021/01/15 11:12:44;;;;;;;6.00;3.80;;;;;;;-5.16;100.00;99274.56;1670750;86;21642;-79
2021/01/15 11:15:12;;;;;;;4.90;3.90;;;;;;;-5.16;100.00;99278.05;1680930;83;21627;-75
2021/01/15 11:17:40;;;;;;;5.30;3.93;;;;;;;-5.19;100.00;99276.92;1702568;83;21607;-71
2021/01/15 11:20:09;;;;;;;5.67;4.07;;;;;;;-5.10;100.00;99277.30;1698165;84;21680;-74
2021/01/15 11:22:37;;;;;;;3.80;3.07;;;;;;;-5.09;100.00;99277.70;1685881;84;21109;-76
2021/01/15 11:25:06;;;;;;;7.87;3.70;;;;;;;-5.09;100.00;99277.22;1679882;83;20973;-74
2021/01/15 11:27:35;;;;;;;5.53;3.90;;;;;;;-5.08;100.00;99276.30;1696953;82;21482;-72
2021/01/15 11:30:04;;;;;;;5.93;3.93;;;;;;;-5.12;100.00;99268.64;1699931;83;21031;-71
2021/01/15 11:32:33;;;;;;;6.10;3.83;;;;;;;-5.21;100.00;99275.30;1638299;86;21894;-72
2021/01/15 11:35:01;;;;;;;6.10;3.63;;;;;;;-5.24;100.00;99273.70;1694103;84;21058;-81
2021/01/15 11:37:33;;;;;;;5.93;3.40;;;;;;;-5.24;100.00;99267.13;1693509;84;21679;-78
2021/01/15 11:39:59;;;;;;;7.13;3.97;;;;;;;-5.22;100.00;99263.92;1693644;84;21200;-80
2021/01/15 11:42:28;;;;;;;4.23;3.13;;;;;;;-5.23;100.00;99267.96;1694566;84;21046;-82
2021/01/15 11:44:55;;;;;;;4.60;3.37;;;;;;;-5.23;100.00;99265.33;1696833;82;21348;-79
2021/01/15 11:47:26;;;;;;;3.93;3.33;;;;;;;-5.20;100.00;99265.99;1706024;83;21099;-81
2021/01/15 11:49:54;;;;;;;7.10;4.27;;;;;;;-5.17;100.00;99259.23;1697612;82;21089;-82
2021/01/15 11:52:23;;;;;;;8.30;5.73;;;;;;;-5.17;100.00;99257.04;1681486;85;20927;-80